KBWI

Baltimore / Washington International Thurgood Marshall Airport

Baltimore, Maryland, USA
METAR KBWI 210520Z 11006KT 10SM BKN016 BKN035 OVC065 23/20 A3009 RMK AO2 T02280200
Observed Flight Rules
Aug-21 @ 05:20 UTC (9 hours ago) Marginal Visual Flight Rules
Wind Visibility Clouds
110° at 6 knots 10 miles
  • Broken at 1,600' AGL
  • Broken at 3,500' AGL
  • Overcast at 6,500' AGL
Temperatures Readings
Current 23°C / 73°F
Dewpoint 20°C / 68°F
Humidity 83%
Altimeter 30.09" Hg
Pressure 1019 hPa
Elevation 59
METAR KBWI 210520Z 11006KT 10SM BKN016 BKN035 OVC065 23/20 A3009 RMK AO2 T02280200
Observed Flight Rules
Aug-21 @ 05:20 UTC
(9 hours ago)
MVFR
Wind Visibility
110° at 6 knots 10 miles
Clouds
  • Broken at 1,600' AGL
  • Broken at 3,500' AGL
  • Overcast at 6,500' AGL
Temperature Dewpoint
23°C / 73°F 20°C / 68°F
Humidity Altimeter Pressure
83% 30.09" Hg 1019 hPa